Time;durP1;ratioP1;P1;durP2;ratioP2;P2;SDS_P1;SDS_P2;PMS_P1;PMS_P2;Temp;Humidity;BMP_temperature;BMP_pressure;BME280_temperature;BME280_humidity;BME280_pressure;Samples;Min_cycle;Max_cycle;Signal;HPM_P1;HPM_P2
2021/12/18 00:01:41;;;;;;;35.53;11.38;;;4.50;99.90;;;;;;4919037;29;20415;-90
2021/12/18 00:04:07;;;;;;;30.95;9.80;;;4.50;99.90;;;;;;4919214;29;20111;-91
2021/12/18 00:06:33;;;;;;;27.13;9.27;;;4.50;99.90;;;;;;4918940;29;20059;-90
2021/12/18 00:08:59;;;;;;;30.48;9.95;;;4.50;99.90;;;;;;4919189;29;20035;-90
2021/12/18 00:11:25;;;;;;;25.90;9.57;;;4.50;99.90;;;;;;4919244;29;20550;-90
2021/12/18 00:13:51;;;;;;;29.27;9.95;;;4.50;99.90;;;;;;4918859;29;20091;-90
2021/12/18 00:16:17;;;;;;;26.10;9.13;;;4.50;99.90;;;;;;4919223;29;20036;-91
2021/12/18 00:18:44;;;;;;;27.10;9.52;;;4.60;99.90;;;;;;4918831;29;20091;-90
2021/12/18 00:21:14;;;;;;;26.65;7.88;;;4.60;99.90;;;;;;4918816;29;20024;-90
2021/12/18 00:23:40;;;;;;;30.15;7.70;;;4.60;99.90;;;;;;4918699;29;20039;-90
2021/12/18 00:26:05;;;;;;;23.10;6.78;;;4.60;99.90;;;;;;4918652;29;20036;-92
2021/12/18 00:28:31;;;;;;;17.13;7.18;;;4.60;99.90;;;;;;4918968;29;20032;-90
2021/12/18 00:30:56;;;;;;;19.00;6.50;;;4.60;99.90;;;;;;4918743;29;20032;-90
2021/12/18 00:33:22;;;;;;;16.77;5.80;;;4.60;99.90;;;;;;4918994;29;20032;-91
2021/12/18 00:35:48;;;;;;;17.30;6.70;;;4.50;99.90;;;;;;4918505;29;20062;-91
2021/12/18 00:38:13;;;;;;;15.15;5.63;;;4.60;99.90;;;;;;4918550;29;20027;-91
2021/12/18 00:40:46;;;;;;;16.77;5.93;;;4.50;99.90;;;;;;4919068;29;20123;-90
2021/12/18 00:43:29;;;;;;;14.43;5.80;;;4.60;99.90;;;;;;4919142;29;20092;-91
2021/12/18 00:45:55;;;;;;;12.60;5.13;;;4.60;99.90;;;;;;4918779;29;20051;-89
2021/12/18 00:48:21;;;;;;;16.60;5.47;;;4.60;99.90;;;;;;4918748;29;20079;-91
2021/12/18 00:50:48;;;;;;;13.40;5.18;;;4.60;99.90;;;;;;4918768;29;20031;-90
2021/12/18 00:53:14;;;;;;;17.70;6.32;;;4.60;99.90;;;;;;4918613;29;20032;-90
2021/12/18 00:55:40;;;;;;;21.77;9.00;;;4.60;99.90;;;;;;4916911;29;20084;-90
2021/12/18 00:58:06;;;;;;;25.42;10.73;;;4.60;99.90;;;;;;4918340;29;20032;-91
2021/12/18 01:00:33;;;;;;;26.48;9.95;;;4.60;99.90;;;;;;4918557;29;20036;-90
2021/12/18 01:03:01;;;;;;;27.75;11.00;;;4.60;99.90;;;;;;4918684;29;20055;-93
2021/12/18 01:05:29;;;;;;;34.78;14.15;;;4.60;99.90;;;;;;4918500;29;20038;-91
2021/12/18 01:07:56;;;;;;;29.83;11.75;;;4.60;99.90;;;;;;4918389;29;20020;-90
2021/12/18 01:13:10;;;;;;;29.40;12.43;;;4.60;99.90;;;;;;4915625;29;20525;-90
2021/12/18 01:15:42;;;;;;;29.02;11.55;;;4.60;99.90;;;;;;4915206;29;20036;-90
2021/12/18 01:23:36;;;;;;;51.22;13.07;;;4.60;99.90;;;;;;4916326;29;20150;-90
2021/12/18 01:26:05;;;;;;;41.08;13.10;;;4.60;99.90;;;;;;4915956;29;20063;-90
2021/12/18 01:28:32;;;;;;;56.38;13.20;;;4.60;99.90;;;;;;4914287;29;20051;-89
2021/12/18 01:30:58;;;;;;;34.17;11.88;;;4.60;99.90;;;;;;4916459;29;20036;-89
2021/12/18 01:33:24;;;;;;;51.63;12.50;;;4.60;99.90;;;;;;4916297;29;20027;-89
2021/12/18 01:35:50;;;;;;;40.97;11.00;;;4.60;99.90;;;;;;4916075;29;20339;-89
2021/12/18 01:38:17;;;;;;;34.05;10.85;;;4.60;99.90;;;;;;4916286;29;20031;-90
2021/12/18 01:40:43;;;;;;;57.90;10.02;;;4.60;99.90;;;;;;4916246;29;20032;-89
2021/12/18 01:46:07;;;;;;;35.65;10.77;;;4.60;99.90;;;;;;4917281;29;20470;-91
2021/12/18 01:53:45;;;;;;;30.70;9.43;;;4.60;99.90;;;;;;4918154;29;20040;-89
2021/12/18 01:56:12;;;;;;;37.03;10.63;;;4.60;99.90;;;;;;4916751;29;20562;-89
2021/12/18 01:58:38;;;;;;;28.33;10.27;;;4.60;99.90;;;;;;4916973;29;20347;-90
2021/12/18 02:01:05;;;;;;;55.05;11.23;;;4.60;99.90;;;;;;4917180;29;20041;-90
2021/12/18 02:03:32;;;;;;;31.55;9.63;;;4.70;99.90;;;;;;4916969;29;20029;-89
2021/12/18 02:05:58;;;;;;;30.83;11.07;;;4.70;99.90;;;;;;4916663;29;20021;-89
2021/12/18 02:08:26;;;;;;;30.58;10.95;;;4.70;99.90;;;;;;4917054;29;20036;-90
2021/12/18 02:11:15;;;;;;;38.13;11.05;;;4.70;99.90;;;;;;4917285;29;20498;-90
2021/12/18 02:22:00;;;;;;;36.20;11.73;;;4.70;99.90;;;;;;4917599;29;20031;-89
2021/12/18 02:24:28;;;;;;;32.35;11.20;;;4.70;99.90;;;;;;4916794;29;20039;-91
2021/12/18 02:26:55;;;;;;;37.58;12.27;;;4.80;99.90;;;;;;4916699;29;20059;-89
2021/12/18 02:29:21;;;;;;;28.77;10.50;;;4.80;99.90;;;;;;4916881;29;20123;-90
2021/12/18 02:31:46;;;;;;;32.15;10.10;;;4.80;99.90;;;;;;4917243;29;20064;-89
2021/12/18 02:34:25;;;;;;;26.25;10.52;;;4.80;99.90;;;;;;4920116;29;20040;-90
2021/12/18 02:36:51;;;;;;;24.00;8.75;;;4.80;99.90;;;;;;4920211;29;20043;-91
2021/12/18 02:39:35;;;;;;;27.10;10.38;;;4.80;99.90;;;;;;4919348;29;20039;-91
2021/12/18 02:42:08;;;;;;;22.38;8.30;;;4.80;99.90;;;;;;4917137;29;20048;-90
2021/12/18 02:44:36;;;;;;;23.25;8.43;;;4.80;99.90;;;;;;4916765;29;20095;-91
2021/12/18 02:47:03;;;;;;;24.95;9.88;;;4.80;99.90;;;;;;4915986;29;20043;-91
2021/12/18 02:49:29;;;;;;;23.63;9.07;;;4.80;99.90;;;;;;4916563;29;20035;-90
2021/12/18 02:51:54;;;;;;;17.98;7.07;;;4.80;99.90;;;;;;4916229;29;20083;-90
2021/12/18 02:54:20;;;;;;;19.00;7.05;;;4.90;99.90;;;;;;4916316;29;20088;-90
2021/12/18 02:56:46;;;;;;;17.88;6.63;;;4.90;99.90;;;;;;4916367;29;20084;-90
2021/12/18 02:59:11;;;;;;;30.80;10.95;;;4.90;99.90;;;;;;4917575;29;20035;-90
2021/12/18 03:01:40;;;;;;;26.08;10.82;;;4.90;99.90;;;;;;4916552;29;20044;-91
2021/12/18 03:04:21;;;;;;;162.48;15.25;;;4.90;99.90;;;;;;4915901;29;20031;-90
2021/12/18 03:06:53;;;;;;;;;;;4.80;99.90;;;;;;4916213;29;20024;-91
2021/12/18 03:20:52;;;;;;;40.60;13.50;;;4.80;99.90;;;;;;4917510;29;20402;-89
2021/12/18 03:25:36;;;;;;;41.90;14.10;;;4.80;99.90;;;;;;4917148;29;20304;-90
2021/12/18 03:28:04;;;;;;;35.78;12.02;;;4.80;99.90;;;;;;4915857;29;20036;-89
2021/12/18 03:30:32;;;;;;;29.42;11.07;;;4.80;99.90;;;;;;4915656;29;20032;-90
2021/12/18 03:32:58;;;;;;;35.78;10.77;;;4.80;99.90;;;;;;4915795;29;20024;-91
2021/12/18 03:35:25;;;;;;;34.17;10.20;;;4.80;99.90;;;;;;4919620;29;20044;-91
2021/12/18 03:37:50;;;;;;;32.63;9.40;;;4.90;99.90;;;;;;4919592;29;20028;-89
2021/12/18 03:40:19;;;;;;;30.20;10.60;;;4.80;99.90;;;;;;4919671;29;20397;-90
2021/12/18 03:42:45;;;;;;;29.73;10.90;;;4.80;99.90;;;;;;4919524;29;20040;-89
2021/12/18 03:45:12;;;;;;;30.33;9.93;;;4.90;99.90;;;;;;4919540;29;20031;-90
2021/12/18 03:47:38;;;;;;;27.85;8.90;;;4.90;99.90;;;;;;4919610;29;20038;-90
2021/12/18 03:50:04;;;;;;;18.25;6.68;;;4.90;99.90;;;;;;4919339;29;20090;-90
2021/12/18 03:52:30;;;;;;;16.80;8.20;;;4.90;99.90;;;;;;4919197;29;20117;-90
2021/12/18 03:54:56;;;;;;;15.63;4.88;;;4.90;99.90;;;;;;4918958;29;20040;-91
2021/12/18 03:57:22;;;;;;;16.10;6.72;;;4.90;99.90;;;;;;4919484;29;20032;-90
2021/12/18 03:59:48;;;;;;;11.75;4.90;;;4.80;99.90;;;;;;4919024;29;20039;-90
2021/12/18 04:02:14;;;;;;;17.52;6.28;;;4.90;99.90;;;;;;4919266;29;20044;-91
2021/12/18 04:04:39;;;;;;;9.20;3.80;;;4.80;99.90;;;;;;4919420;29;20032;-91
2021/12/18 04:07:07;;;;;;;7.32;4.00;;;4.80;99.90;;;;;;4919191;29;20052;-90
2021/12/18 04:09:33;;;;;;;12.48;4.50;;;4.80;99.90;;;;;;4919101;29;20031;-91
2021/12/18 04:12:00;;;;;;;11.55;4.80;;;4.80;99.90;;;;;;4919061;29;20500;-90
2021/12/18 04:14:25;;;;;;;11.55;5.05;;;4.80;99.90;;;;;;4919883;29;20039;-91
2021/12/18 04:16:51;;;;;;;13.43;4.63;;;4.80;99.90;;;;;;4919127;29;20459;-91
2021/12/18 04:19:18;;;;;;;8.82;4.10;;;4.80;99.90;;;;;;4920266;29;20265;-89
2021/12/18 04:21:45;;;;;;;10.65;4.82;;;4.90;99.90;;;;;;4919480;29;20127;-91
2021/12/18 04:24:11;;;;;;;10.20;4.60;;;4.90;99.90;;;;;;4919182;29;20174;-89
2021/12/18 04:26:36;;;;;;;9.82;5.38;;;5.00;99.90;;;;;;4919231;29;20052;-90
2021/12/18 04:29:05;;;;;;;8.20;3.78;;;5.00;99.90;;;;;;4918979;29;20030;-90
2021/12/18 04:31:31;;;;;;;6.90;3.97;;;5.00;99.90;;;;;;4918944;29;20129;-90
2021/12/18 04:33:57;;;;;;;7.90;3.63;;;5.00;99.90;;;;;;4918794;29;20516;-91
2021/12/18 04:36:23;;;;;;;9.40;4.75;;;5.00;99.90;;;;;;4918997;29;20048;-91
2021/12/18 04:38:49;;;;;;;7.40;4.00;;;5.00;99.90;;;;;;4919040;29;20028;-89
2021/12/18 04:41:22;;;;;;;5.90;3.20;;;5.00;99.90;;;;;;4918821;29;20032;-91
2021/12/18 04:43:48;;;;;;;7.90;3.75;;;5.00;99.90;;;;;;4918864;29;20028;-91
2021/12/18 04:46:14;;;;;;;7.45;3.55;;;5.00;99.90;;;;;;4918827;29;20032;-90
2021/12/18 04:48:40;;;;;;;8.98;4.15;;;5.00;99.90;;;;;;4920208;29;20038;-89
2021/12/18 04:51:05;;;;;;;7.20;3.35;;;5.00;99.90;;;;;;4918196;29;20521;-91
2021/12/18 04:53:31;;;;;;;7.03;3.40;;;5.00;99.90;;;;;;4918782;29;20028;-90
2021/12/18 04:55:57;;;;;;;6.70;3.55;;;5.00;99.90;;;;;;4918254;29;20067;-91
2021/12/18 04:58:22;;;;;;;10.23;4.03;;;4.90;99.90;;;;;;4918808;29;20112;-90
2021/12/18 05:00:48;;;;;;;10.27;4.35;;;4.90;99.90;;;;;;4918261;29;20510;-91
2021/12/18 05:03:16;;;;;;;13.88;5.60;;;4.90;99.90;;;;;;4918651;29;20032;-90
2021/12/18 05:05:42;;;;;;;13.18;4.80;;;5.00;99.90;;;;;;4918197;29;20386;-89
2021/12/18 05:08:08;;;;;;;15.52;5.45;;;5.00;99.90;;;;;;4917998;29;20043;-90
2021/12/18 05:10:34;;;;;;;14.90;6.05;;;5.10;99.90;;;;;;4917801;29;20028;-90
2021/12/18 05:12:59;;;;;;;15.18;5.88;;;5.10;99.90;;;;;;4917967;29;20042;-91
2021/12/18 05:15:26;;;;;;;12.32;4.90;;;5.10;99.90;;;;;;4917874;29;20175;-89
2021/12/18 05:17:52;;;;;;;10.88;3.67;;;5.10;99.90;;;;;;4917487;29;20032;-91
2021/12/18 05:20:17;;;;;;;8.13;4.30;;;5.10;99.90;;;;;;4918158;29;20024;-90
2021/12/18 05:22:43;;;;;;;9.25;3.95;;;5.10;99.90;;;;;;4918359;29;20028;-90
2021/12/18 05:25:10;;;;;;;8.68;4.47;;;5.10;99.90;;;;;;4918419;29;20024;-91
2021/12/18 05:27:36;;;;;;;6.53;3.42;;;5.00;99.90;;;;;;4917760;29;20399;-91
2021/12/18 05:30:07;;;;;;;5.68;3.35;;;5.00;99.90;;;;;;4918396;29;20032;-90
2021/12/18 05:32:32;;;;;;;6.05;3.25;;;5.00;99.90;;;;;;4918422;29;20020;-89
2021/12/18 05:34:58;;;;;;;5.25;3.38;;;5.00;99.90;;;;;;4917907;29;20137;-90
2021/12/18 05:37:32;;;;;;;7.38;3.67;;;4.90;99.90;;;;;;4917556;29;20055;-90
2021/12/18 05:39:59;;;;;;;7.53;3.63;;;4.90;99.90;;;;;;4917541;29;20493;-91
2021/12/18 05:42:25;;;;;;;6.80;3.10;;;4.90;99.90;;;;;;4917568;29;20083;-90
2021/12/18 05:44:50;;;;;;;6.53;3.25;;;4.90;99.90;;;;;;4917404;29;20119;-91
2021/12/18 05:47:16;;;;;;;7.72;3.67;;;4.90;99.90;;;;;;4917654;29;20048;-90
2021/12/18 05:49:42;;;;;;;6.30;3.33;;;4.90;99.90;;;;;;4917731;29;20031;-90
2021/12/18 05:52:08;;;;;;;9.07;3.75;;;4.90;99.90;;;;;;4917494;29;20388;-91
2021/12/18 05:54:35;;;;;;;6.28;3.40;;;4.90;99.90;;;;;;4917336;29;20043;-91
2021/12/18 05:57:09;;;;;;;5.22;3.25;;;4.90;99.90;;;;;;4916542;29;20052;-90
2021/12/18 05:59:35;;;;;;;4.40;2.72;;;4.90;99.90;;;;;;4917021;29;20028;-91
2021/12/18 06:02:02;;;;;;;4.82;2.55;;;4.80;99.90;;;;;;4917195;29;20080;-89
2021/12/18 06:04:28;;;;;;;2.97;1.80;;;4.90;99.90;;;;;;4917252;29;20028;-89
2021/12/18 06:07:03;;;;;;;4.35;2.78;;;4.80;99.90;;;;;;4917414;29;20039;-91
2021/12/18 06:09:29;;;;;;;4.78;2.60;;;4.70;99.90;;;;;;4917372;29;20115;-90
2021/12/18 06:11:54;;;;;;;3.15;1.90;;;4.70;99.90;;;;;;4917241;29;20106;-91
2021/12/18 06:14:20;;;;;;;4.30;2.20;;;4.70;99.90;;;;;;4917504;29;20398;-92
2021/12/18 06:16:46;;;;;;;3.28;2.08;;;4.70;99.90;;;;;;4917531;29;20060;-91
2021/12/18 06:19:11;;;;;;;4.97;2.17;;;4.60;99.90;;;;;;4917136;29;20059;-89
2021/12/18 06:21:38;;;;;;;3.08;1.92;;;4.60;99.90;;;;;;4917176;29;20092;-91
2021/12/18 06:24:04;;;;;;;3.63;2.03;;;4.60;99.90;;;;;;4917007;29;20051;-90
2021/12/18 06:26:30;;;;;;;4.15;2.03;;;4.60;99.90;;;;;;4917360;29;20025;-91
2021/12/18 06:28:56;;;;;;;4.22;2.30;;;4.60;99.90;;;;;;4917030;29;20040;-90
2021/12/18 06:31:22;;;;;;;3.88;1.98;;;4.70;99.90;;;;;;4916918;29;20123;-91
2021/12/18 06:33:48;;;;;;;4.75;2.60;;;4.70;99.90;;;;;;4916940;29;20036;-91
2021/12/18 06:36:13;;;;;;;2.90;1.58;;;4.60;99.90;;;;;;4917394;29;20036;-90
2021/12/18 06:38:39;;;;;;;3.03;1.88;;;4.60;99.90;;;;;;4918193;29;20172;-90
2021/12/18 06:41:10;;;;;;;6.43;3.13;;;4.60;99.90;;;;;;4917559;29;20039;-92
2021/12/18 06:43:36;;;;;;;3.05;1.67;;;4.60;99.90;;;;;;4916496;29;20032;-90
2021/12/18 06:46:02;;;;;;;3.72;2.00;;;4.60;99.90;;;;;;4916768;29;20047;-90
2021/12/18 06:48:28;;;;;;;5.13;2.05;;;4.60;99.90;;;;;;4916682;29;20111;-91
2021/12/18 06:50:53;;;;;;;6.22;2.55;;;4.60;99.90;;;;;;4916415;29;20401;-90
2021/12/18 06:53:19;;;;;;;4.45;2.88;;;4.60;99.90;;;;;;4915921;29;20539;-91
2021/12/18 06:55:45;;;;;;;5.50;2.72;;;4.60;99.90;;;;;;4916026;29;20123;-91
2021/12/18 06:58:10;;;;;;;5.70;2.40;;;4.60;99.90;;;;;;4916225;29;20030;-89
2021/12/18 07:00:36;;;;;;;3.50;1.88;;;4.60;99.90;;;;;;4916103;29;20119;-91
2021/12/18 07:03:03;;;;;;;4.03;2.10;;;4.60;99.90;;;;;;4914911;29;20028;-91
2021/12/18 07:05:29;;;;;;;5.68;2.15;;;4.60;99.90;;;;;;4915068;29;20505;-89
2021/12/18 07:07:56;;;;;;;4.43;1.73;;;4.60;99.90;;;;;;4915193;29;20031;-91
2021/12/18 07:10:22;;;;;;;4.82;2.10;;;4.60;99.90;;;;;;4914827;29;20020;-90
2021/12/18 07:12:48;;;;;;;3.65;1.95;;;4.60;99.90;;;;;;4914882;29;20032;-91
2021/12/18 07:15:14;;;;;;;3.30;1.73;;;4.70;99.90;;;;;;4915514;29;20039;-92
2021/12/18 07:17:40;;;;;;;4.05;2.15;;;4.70;99.90;;;;;;4915060;29;20481;-92
2021/12/18 07:20:07;;;;;;;3.05;1.77;;;4.70;99.90;;;;;;4914495;29;20064;-92
2021/12/18 07:22:33;;;;;;;2.72;1.75;;;4.60;99.90;;;;;;4913047;29;20031;-93
2021/12/18 07:24:59;;;;;;;4.50;1.98;;;4.60;99.90;;;;;;4914078;29;20028;-92
2021/12/18 07:27:25;;;;;;;3.13;2.08;;;4.60;99.90;;;;;;4915674;29;20035;-92
2021/12/18 07:29:51;;;;;;;4.68;2.13;;;4.60;99.90;;;;;;4912820;29;20024;-91
2021/12/18 07:32:17;;;;;;;4.28;2.17;;;4.60;99.90;;;;;;4913206;29;20107;-91
2021/12/18 07:34:42;;;;;;;4.75;2.60;;;4.60;99.90;;;;;;4915760;29;20066;-92
2021/12/18 07:37:08;;;;;;;4.47;2.00;;;4.60;99.90;;;;;;4913726;29;20035;-92
2021/12/18 07:39:34;;;;;;;6.15;2.22;;;4.60;99.90;;;;;;4916186;29;20032;-92
2021/12/18 07:42:00;;;;;;;2.72;1.85;;;4.60;99.90;;;;;;4916132;29;20038;-92
2021/12/18 07:44:25;;;;;;;3.42;1.75;;;4.60;99.90;;;;;;4916208;29;20438;-91
2021/12/18 07:46:51;;;;;;;3.17;2.03;;;4.60;99.90;;;;;;4916579;29;20025;-92
2021/12/18 07:49:18;;;;;;;4.13;1.77;;;4.60;99.90;;;;;;4916253;29;20484;-94
2021/12/18 07:51:44;;;;;;;4.05;1.80;;;4.60;99.90;;;;;;4915543;29;20054;-91
2021/12/18 07:54:10;;;;;;;2.92;1.40;;;4.70;99.90;;;;;;4915069;29;20075;-91
2021/12/18 07:56:36;;;;;;;3.05;1.63;;;4.60;99.90;;;;;;4914796;29;20494;-92
2021/12/18 07:59:02;;;;;;;4.57;1.92;;;4.60;99.90;;;;;;4909431;29;20031;-92
2021/12/18 08:01:27;;;;;;;2.95;1.58;;;4.70;99.90;;;;;;4912573;29;20478;-91
2021/12/18 08:03:53;;;;;;;2.75;1.60;;;4.70;99.90;;;;;;4915569;29;20035;-93
2021/12/18 08:06:20;;;;;;;6.18;2.00;;;4.70;99.90;;;;;;4915695;29;20055;-92
2021/12/18 08:08:46;;;;;;;3.65;1.90;;;4.70;99.90;;;;;;4916108;29;20111;-92
2021/12/18 08:11:12;;;;;;;4.78;1.77;;;4.70;99.90;;;;;;4913830;29;20020;-89
2021/12/18 08:13:39;;;;;;;2.63;1.55;;;4.70;99.90;;;;;;4915105;29;20024;-90
2021/12/18 08:16:05;;;;;;;5.45;2.25;;;4.70;99.90;;;;;;4913006;29;20036;-89
2021/12/18 08:18:31;;;;;;;3.88;1.92;;;4.70;99.90;;;;;;4918391;29;20032;-92
2021/12/18 08:20:57;;;;;;;4.57;1.92;;;4.70;99.90;;;;;;4917353;29;20043;-91
2021/12/18 08:23:23;;;;;;;6.55;2.38;;;4.70;99.90;;;;;;4924786;29;20032;-92
2021/12/18 08:25:49;;;;;;;6.47;3.28;;;4.70;99.90;;;;;;4923090;29;20127;-93
2021/12/18 08:28:15;;;;;;;5.97;2.17;;;4.70;99.90;;;;;;4929875;29;20508;-92
2021/12/18 08:30:41;;;;;;;4.47;2.00;;;4.70;99.90;;;;;;4936936;29;20071;-91
2021/12/18 08:33:07;;;;;;;4.30;2.17;;;4.70;99.90;;;;;;4939347;29;20095;-91
2021/12/18 08:35:34;;;;;;;3.95;1.88;;;4.60;99.90;;;;;;4932990;29;20091;-90
2021/12/18 08:38:01;;;;;;;4.57;2.10;;;4.70;99.90;;;;;;4914493;29;20027;-91
2021/12/18 08:40:28;;;;;;;5.97;2.22;;;4.70;99.90;;;;;;4918393;29;20096;-92
2021/12/18 08:42:54;;;;;;;3.25;1.88;;;4.70;99.90;;;;;;4918257;29;20026;-90
2021/12/18 08:45:20;;;;;;;5.15;3.38;;;4.70;99.90;;;;;;4917852;29;20118;-94
2021/12/18 08:47:47;;;;;;;7.47;2.90;;;4.70;99.90;;;;;;4918136;29;20020;-93
2021/12/18 08:50:17;;;;;;;6.32;2.97;;;4.80;99.90;;;;;;4915805;29;20039;-90
2021/12/18 08:52:43;;;;;;;9.05;3.42;;;4.70;99.90;;;;;;4918558;29;20123;-94
2021/12/18 08:55:10;;;;;;;6.20;2.97;;;4.70;99.90;;;;;;4918546;29;20040;-92
2021/12/18 08:57:36;;;;;;;8.68;3.40;;;4.70;99.90;;;;;;4918539;29;20044;-92
2021/12/18 09:00:04;;;;;;;6.68;2.90;;;4.70;99.90;;;;;;4918411;29;20028;-91
2021/12/18 09:02:30;;;;;;;7.95;3.25;;;4.70;99.90;;;;;;4917956;29;20091;-93
2021/12/18 09:04:56;;;;;;;7.38;3.80;;;4.70;99.90;;;;;;4918442;29;20028;-92
2021/12/18 09:07:22;;;;;;;8.70;3.40;;;4.70;99.90;;;;;;4917485;29;20028;-91
2021/12/18 09:09:49;;;;;;;5.97;3.17;;;4.70;99.90;;;;;;4917028;29;20024;-92
2021/12/18 09:12:14;;;;;;;8.20;3.65;;;4.80;99.90;;;;;;4914305;29;20028;-93
2021/12/18 09:14:40;;;;;;;9.93;4.05;;;4.80;99.90;;;;;;4917815;29;20040;-92
2021/12/18 09:17:07;;;;;;;11.63;4.22;;;4.80;99.90;;;;;;4917336;29;20016;-90
2021/12/18 09:19:33;;;;;;;11.70;3.95;;;4.80;99.90;;;;;;4917029;29;20443;-90
2021/12/18 09:21:59;;;;;;;13.57;4.90;;;4.80;99.90;;;;;;4917293;29;20020;-92
2021/12/18 09:24:26;;;;;;;9.63;4.70;;;4.80;99.90;;;;;;4917505;29;20082;-90
2021/12/18 09:26:52;;;;;;;9.10;4.38;;;4.90;99.90;;;;;;4918609;29;20517;-92
2021/12/18 09:29:18;;;;;;;9.98;3.70;;;4.90;99.90;;;;;;4918180;29;20024;-92
2021/12/18 09:31:47;;;;;;;9.68;3.72;;;4.90;99.90;;;;;;4917591;29;20036;-93
2021/12/18 09:34:14;;;;;;;7.78;3.85;;;4.90;99.90;;;;;;4900506;29;20041;-93
2021/12/18 09:36:40;;;;;;;10.48;4.32;;;4.90;99.90;;;;;;4902596;29;20060;-92
2021/12/18 09:39:06;;;;;;;12.93;5.25;;;4.90;99.90;;;;;;4899487;29;20501;-96
2021/12/18 09:41:40;;;;;;;8.55;4.40;;;4.90;99.90;;;;;;4898965;29;20395;-94
2021/12/18 09:44:06;;;;;;;8.52;4.22;;;5.00;99.90;;;;;;4909492;29;20035;-91
2021/12/18 09:46:32;;;;;;;9.00;3.33;;;4.90;99.90;;;;;;4904601;29;20592;-92
2021/12/18 09:48:58;;;;;;;8.80;4.03;;;5.00;99.90;;;;;;4916802;29;20059;-92
2021/12/18 09:51:27;;;;;;;13.57;4.03;;;5.00;99.90;;;;;;4916732;29;20036;-92
2021/12/18 09:54:00;;;;;;;6.03;3.38;;;5.00;99.90;;;;;;4911137;29;20028;-94
2021/12/18 09:56:33;;;;;;;9.50;4.43;;;5.00;99.90;;;;;;4910134;29;20048;-94
2021/12/18 09:59:25;;;;;;;9.18;5.07;;;5.00;99.90;;;;;;4909008;29;20026;-93
2021/12/18 10:05:10;;;;;;;10.02;4.70;;;5.10;99.90;;;;;;4911037;29;20070;-92
2021/12/18 10:07:35;;;;;;;8.07;4.13;;;5.10;99.90;;;;;;4908603;29;20040;-94
2021/12/18 10:10:10;;;;;;;10.75;4.55;;;5.10;99.90;;;;;;4909042;29;20029;-94
2021/12/18 10:12:37;;;;;;;13.52;5.63;;;5.10;99.90;;;;;;4909527;29;20017;-93
2021/12/18 10:15:15;;;;;;;13.75;5.85;;;5.10;99.90;;;;;;4906457;29;20033;-92
2021/12/18 10:17:44;;;;;;;13.80;5.78;;;5.10;99.90;;;;;;4908259;29;20028;-92
2021/12/18 10:20:09;;;;;;;10.85;5.32;;;5.10;99.90;;;;;;4903069;29;20062;-93
2021/12/18 10:22:58;;;;;;;11.15;4.55;;;5.10;99.90;;;;;;4901185;29;20115;-92
2021/12/18 10:25:33;;;;;;;14.68;5.53;;;5.10;99.90;;;;;;4906419;29;20047;-96
2021/12/18 10:28:45;;;;;;;12.10;4.70;;;5.20;99.90;;;;;;4929917;29;20033;-96
2021/12/18 10:31:45;;;;;;;12.90;4.30;;;5.20;99.90;;;;;;4921164;29;20056;-96
2021/12/18 10:34:29;;;;;;;12.30;5.03;;;5.30;99.90;;;;;;4892405;29;20047;-95
2021/12/18 10:37:23;;;;;;;14.95;5.82;;;5.30;99.90;;;;;;4918229;29;20041;-95
2021/12/18 10:40:06;;;;;;;22.67;7.55;;;5.40;99.90;;;;;;4897021;29;20037;-94
2021/12/18 10:42:45;;;;;;;10.88;5.05;;;5.40;99.90;;;;;;4914116;29;20012;-96
2021/12/18 10:45:27;;;;;;;18.97;7.23;;;5.40;99.90;;;;;;4898671;29;20052;-95
2021/12/18 10:48:16;;;;;;;18.58;7.35;;;5.40;99.90;;;;;;4902352;29;20037;-95
2021/12/18 10:50:48;;;;;;;20.38;6.45;;;5.50;99.90;;;;;;4889592;29;20052;-96
2021/12/18 10:53:27;;;;;;;17.88;6.78;;;5.50;99.90;;;;;;4891501;29;20112;-94
2021/12/18 10:55:54;;;;;;;19.88;6.72;;;5.50;99.90;;;;;;4886339;29;20139;-93
2021/12/18 10:58:37;;;;;;;34.45;7.40;;;5.50;99.90;;;;;;4900911;29;20037;-95
2021/12/18 11:01:11;;;;;;;22.52;7.53;;;5.50;99.90;;;;;;4884016;29;20049;-92
2021/12/18 11:03:39;;;;;;;16.80;6.47;;;5.50;99.90;;;;;;4877149;29;20048;-93
2021/12/18 11:06:14;;;;;;;13.85;5.60;;;5.40;99.90;;;;;;4862192;29;20028;-93
2021/12/18 11:09:04;;;;;;;21.90;6.70;;;5.40;99.90;;;;;;4863081;29;20033;-93
2021/12/18 11:14:03;;;;;;;17.88;7.05;;;5.40;99.90;;;;;;4898891;29;20060;-94
2021/12/18 11:16:30;;;;;;;22.60;8.55;;;5.40;99.90;;;;;;4897694;29;20368;-92
2021/12/18 11:18:56;;;;;;;15.20;6.90;;;5.40;99.90;;;;;;4898193;29;20115;-94
2021/12/18 11:21:26;;;;;;;20.50;7.30;;;5.40;99.90;;;;;;4898235;29;20024;-94
2021/12/18 11:24:04;;;;;;;14.15;6.10;;;5.40;99.90;;;;;;4897144;29;20028;-93
2021/12/18 11:26:43;;;;;;;13.85;6.00;;;5.40;99.90;;;;;;4897242;29;20467;-93
2021/12/18 11:29:20;;;;;;;14.32;6.05;;;5.40;99.90;;;;;;4897352;29;20059;-93
2021/12/18 11:31:47;;;;;;;10.85;5.13;;;5.40;99.90;;;;;;4897863;29;20095;-93
2021/12/18 11:34:14;;;;;;;11.75;5.25;;;5.40;99.90;;;;;;4904419;29;20029;-94
2021/12/18 11:36:43;;;;;;;13.35;5.78;;;5.40;99.90;;;;;;4897428;29;20115;-92
2021/12/18 11:39:11;;;;;;;13.40;5.38;;;5.40;99.90;;;;;;4898283;29;20029;-93
2021/12/18 11:41:39;;;;;;;12.52;5.43;;;5.40;99.90;;;;;;4898246;29;20040;-93
2021/12/18 11:44:23;;;;;;;11.93;5.43;;;5.30;99.90;;;;;;4898073;29;20035;-92
2021/12/18 11:46:52;;;;;;;11.93;5.93;;;5.30;99.90;;;;;;4898246;29;20032;-93
2021/12/18 11:49:20;;;;;;;12.27;6.05;;;5.40;99.90;;;;;;4897840;29;20028;-93
2021/12/18 11:52:02;;;;;;;11.57;5.00;;;5.40;99.90;;;;;;4897170;29;20129;-93
2021/12/18 11:54:50;;;;;;;10.88;5.47;;;5.40;99.90;;;;;;4897795;29;20116;-94
2021/12/18 11:57:36;;;;;;;7.85;3.97;;;5.40;99.90;;;;;;4899926;29;20057;-94
2021/12/18 12:00:30;;;;;;;8.57;4.13;;;5.40;99.90;;;;;;4901062;29;20483;-94
2021/12/18 12:02:57;;;;;;;10.38;4.82;;;5.40;99.90;;;;;;4904122;29;20513;-93
2021/12/18 12:05:37;;;;;;;9.70;4.70;;;5.50;99.90;;;;;;4901272;29;20092;-93
2021/12/18 12:08:30;;;;;;;8.57;4.20;;;5.50;99.90;;;;;;4901644;29;20084;-93
2021/12/18 12:11:24;;;;;;;12.73;4.90;;;5.60;99.90;;;;;;4902616;29;20029;-93
2021/12/18 12:14:00;;;;;;;9.60;4.55;;;5.60;99.90;;;;;;4901384;29;20028;-94
2021/12/18 12:16:44;;;;;;;8.10;3.90;;;5.60;99.90;;;;;;4900799;29;20036;-92
2021/12/18 12:19:35;;;;;;;7.40;4.38;;;5.60;99.90;;;;;;5111708;27;20434;-93
2021/12/18 12:22:07;;;;;;;9.57;4.32;;;5.60;99.90;;;;;;5073952;28;20063;-94
2021/12/18 12:24:56;;;;;;;8.25;4.22;;;5.60;99.90;;;;;;5073931;28;20012;-92
2021/12/18 12:27:38;;;;;;;8.55;4.32;;;5.70;99.90;;;;;;5073540;28;20478;-91
2021/12/18 12:30:12;;;;;;;7.63;4.38;;;5.60;99.90;;;;;;5073773;28;20028;-93
2021/12/18 12:32:54;;;;;;;10.70;4.50;;;5.70;99.90;;;;;;5073365;28;20020;-92
2021/12/18 12:35:21;;;;;;;9.82;4.95;;;5.70;99.90;;;;;;5073392;28;20024;-93
2021/12/18 12:37:46;;;;;;;8.65;4.75;;;5.70;99.90;;;;;;5073706;28;20054;-92
2021/12/18 12:40:35;;;;;;;10.80;5.10;;;5.70;99.90;;;;;;5073627;28;20028;-93
2021/12/18 12:43:15;;;;;;;12.85;5.18;;;5.70;99.90;;;;;;5074029;28;20021;-93
2021/12/18 12:45:47;;;;;;;10.32;4.72;;;5.70;99.90;;;;;;5074150;28;20065;-93
2021/12/18 12:48:16;;;;;;;11.23;6.13;;;5.70;99.90;;;;;;5073210;28;20042;-93
2021/12/18 12:50:42;;;;;;;20.02;6.07;;;5.70;99.90;;;;;;5073423;28;20043;-93
2021/12/18 12:53:11;;;;;;;8.73;4.35;;;5.70;99.90;;;;;;5073349;28;20020;-94
2021/12/18 12:55:44;;;;;;;9.57;5.07;;;5.70;99.90;;;;;;5062862;28;20024;-93
2021/12/18 12:58:25;;;;;;;8.77;4.82;;;5.70;99.90;;;;;;5052873;28;20524;-93
2021/12/18 13:01:03;;;;;;;8.93;5.03;;;5.60;99.90;;;;;;5051940;28;20131;-93
2021/12/18 13:03:47;;;;;;;12.82;6.28;;;5.70;99.90;;;;;;5053015;28;20067;-93
2021/12/18 13:06:21;;;;;;;13.60;6.38;;;5.70;99.90;;;;;;5053229;28;20122;-93
2021/12/18 13:08:48;;;;;;;10.52;4.95;;;5.70;99.90;;;;;;5053291;28;20035;-92
2021/12/18 13:11:23;;;;;;;12.57;5.35;;;5.70;99.90;;;;;;5052930;28;20032;-93
2021/12/18 13:13:53;;;;;;;11.13;5.50;;;5.70;99.90;;;;;;5053685;28;20470;-93
2021/12/18 13:16:22;;;;;;;11.00;5.82;;;5.70;99.90;;;;;;5053010;28;20028;-94
2021/12/18 13:18:54;;;;;;;11.15;5.70;;;5.70;99.90;;;;;;5052946;28;20045;-92
2021/12/18 13:21:28;;;;;;;12.18;5.93;;;5.70;99.90;;;;;;5054679;28;20111;-93
2021/12/18 13:24:02;;;;;;;9.60;5.60;;;5.70;99.90;;;;;;5053106;28;20028;-93
2021/12/18 13:26:47;;;;;;;13.25;6.35;;;5.80;99.90;;;;;;5053897;28;20127;-92
2021/12/18 13:29:18;;;;;;;12.32;6.18;;;5.70;99.90;;;;;;5049116;28;20502;-93
2021/12/18 13:31:52;;;;;;;16.80;7.28;;;5.80;99.90;;;;;;5039772;28;20025;-92
2021/12/18 13:34:31;;;;;;;14.77;7.18;;;5.80;99.90;;;;;;5037907;28;20088;-93
2021/12/18 13:37:01;;;;;;;30.20;8.32;;;5.80;99.90;;;;;;5039492;28;20035;-93
2021/12/18 13:39:39;;;;;;;22.23;7.95;;;5.80;99.90;;;;;;5039045;28;20037;-94
2021/12/18 13:42:11;;;;;;;17.52;8.45;;;5.70;99.90;;;;;;5055835;28;20029;-91
2021/12/18 13:44:42;;;;;;;18.45;7.35;;;5.80;99.90;;;;;;5039044;28;20029;-93
2021/12/18 13:47:34;;;;;;;15.82;6.97;;;5.80;99.90;;;;;;5038771;28;20029;-93